sensor_id;sensor_type;location;lat;lon;timestamp;P1;durP1;ratioP1;P2;durP2;ratioP2
62153;SDS011;48140;45.486;9.226;2023-06-14T00:00:20;11.85;;;8.25;;
62153;SDS011;48140;45.486;9.226;2023-06-14T00:02:47;10.50;;;7.53;;
62153;SDS011;48140;45.486;9.226;2023-06-14T00:05:13;10.85;;;7.43;;
62153;SDS011;48140;45.486;9.226;2023-06-14T00:07:39;12.38;;;7.40;;
62153;SDS011;48140;45.486;9.226;2023-06-14T00:10:09;14.40;;;7.22;;
62153;SDS011;48140;45.486;9.226;2023-06-14T00:12:39;10.90;;;6.75;;
62153;SDS011;48140;45.486;9.226;2023-06-14T00:15:05;10.85;;;6.95;;
62153;SDS011;48140;45.486;9.226;2023-06-14T00:17:32;13.18;;;7.32;;
62153;SDS011;48140;45.486;9.226;2023-06-14T00:19:59;11.82;;;7.20;;
62153;SDS011;48140;45.486;9.226;2023-06-14T00:22:25;10.63;;;6.25;;
62153;SDS011;48140;45.486;9.226;2023-06-14T00:24:51;12.18;;;7.07;;
62153;SDS011;48140;45.486;9.226;2023-06-14T00:27:17;10.88;;;6.95;;
62153;SDS011;48140;45.486;9.226;2023-06-14T00:29:43;11.43;;;6.88;;
62153;SDS011;48140;45.486;9.226;2023-06-14T00:32:08;10.93;;;7.10;;
62153;SDS011;48140;45.486;9.226;2023-06-14T00:34:34;8.77;;;6.15;;
62153;SDS011;48140;45.486;9.226;2023-06-14T00:37:00;9.52;;;6.85;;
62153;SDS011;48140;45.486;9.226;2023-06-14T00:39:26;8.40;;;5.88;;
62153;SDS011;48140;45.486;9.226;2023-06-14T00:41:52;11.32;;;6.20;;
62153;SDS011;48140;45.486;9.226;2023-06-14T00:44:17;11.30;;;5.80;;
62153;SDS011;48140;45.486;9.226;2023-06-14T00:46:45;10.88;;;6.10;;
62153;SDS011;48140;45.486;9.226;2023-06-14T00:49:11;11.18;;;6.20;;
62153;SDS011;48140;45.486;9.226;2023-06-14T00:51:38;8.63;;;6.05;;
62153;SDS011;48140;45.486;9.226;2023-06-14T00:54:04;9.45;;;6.05;;
62153;SDS011;48140;45.486;9.226;2023-06-14T00:56:30;11.02;;;6.07;;
62153;SDS011;48140;45.486;9.226;2023-06-14T00:58:56;9.98;;;6.15;;
62153;SDS011;48140;45.486;9.226;2023-06-14T01:01:22;8.15;;;5.93;;
62153;SDS011;48140;45.486;9.226;2023-06-14T01:03:49;10.00;;;6.28;;
62153;SDS011;48140;45.486;9.226;2023-06-14T01:06:20;10.82;;;6.47;;
62153;SDS011;48140;45.486;9.226;2023-06-14T01:08:57;8.60;;;6.07;;
62153;SDS011;48140;45.486;9.226;2023-06-14T01:12:00;8.77;;;6.32;;
62153;SDS011;48140;45.486;9.226;2023-06-14T01:14:41;10.98;;;6.40;;
62153;SDS011;48140;45.486;9.226;2023-06-14T01:17:08;10.82;;;6.70;;
62153;SDS011;48140;45.486;9.226;2023-06-14T01:19:42;12.18;;;6.70;;
62153;SDS011;48140;45.486;9.226;2023-06-14T01:22:09;10.13;;;5.97;;
62153;SDS011;48140;45.486;9.226;2023-06-14T01:24:35;10.25;;;5.95;;
62153;SDS011;48140;45.486;9.226;2023-06-14T01:27:01;9.48;;;5.47;;
62153;SDS011;48140;45.486;9.226;2023-06-14T01:29:28;9.10;;;5.65;;
62153;SDS011;48140;45.486;9.226;2023-06-14T01:31:58;8.63;;;5.30;;
62153;SDS011;48140;45.486;9.226;2023-06-14T01:34:24;7.70;;;5.13;;
62153;SDS011;48140;45.486;9.226;2023-06-14T01:36:50;7.63;;;4.50;;
62153;SDS011;48140;45.486;9.226;2023-06-14T01:39:19;5.88;;;3.90;;
62153;SDS011;48140;45.486;9.226;2023-06-14T01:41:47;5.45;;;3.80;;
62153;SDS011;48140;45.486;9.226;2023-06-14T01:44:14;6.72;;;4.10;;
62153;SDS011;48140;45.486;9.226;2023-06-14T01:46:42;6.15;;;3.70;;
62153;SDS011;48140;45.486;9.226;2023-06-14T01:49:08;6.00;;;3.70;;
62153;SDS011;48140;45.486;9.226;2023-06-14T01:51:35;5.38;;;3.33;;
62153;SDS011;48140;45.486;9.226;2023-06-14T01:54:01;4.82;;;3.22;;
62153;SDS011;48140;45.486;9.226;2023-06-14T01:56:26;6.65;;;3.55;;
62153;SDS011;48140;45.486;9.226;2023-06-14T01:58:52;7.40;;;3.95;;
62153;SDS011;48140;45.486;9.226;2023-06-14T02:01:18;4.88;;;3.55;;
62153;SDS011;48140;45.486;9.226;2023-06-14T02:03:46;6.57;;;3.60;;
62153;SDS011;48140;45.486;9.226;2023-06-14T02:06:13;5.80;;;3.35;;
62153;SDS011;48140;45.486;9.226;2023-06-14T02:08:40;5.65;;;3.35;;
62153;SDS011;48140;45.486;9.226;2023-06-14T02:11:06;5.35;;;3.55;;
62153;SDS011;48140;45.486;9.226;2023-06-14T02:13:32;5.38;;;3.42;;
62153;SDS011;48140;45.486;9.226;2023-06-14T02:15:58;4.93;;;3.00;;
62153;SDS011;48140;45.486;9.226;2023-06-14T02:18:24;5.07;;;3.38;;
62153;SDS011;48140;45.486;9.226;2023-06-14T02:20:50;4.47;;;3.00;;
62153;SDS011;48140;45.486;9.226;2023-06-14T02:23:15;4.90;;;3.03;;
62153;SDS011;48140;45.486;9.226;2023-06-14T02:25:41;4.80;;;3.22;;
62153;SDS011;48140;45.486;9.226;2023-06-14T02:28:08;6.00;;;2.67;;
62153;SDS011;48140;45.486;9.226;2023-06-14T02:30:33;4.50;;;2.60;;
62153;SDS011;48140;45.486;9.226;2023-06-14T02:32:59;3.88;;;2.72;;
62153;SDS011;48140;45.486;9.226;2023-06-14T02:35:25;3.83;;;2.67;;
62153;SDS011;48140;45.486;9.226;2023-06-14T02:37:52;6.53;;;2.75;;
62153;SDS011;48140;45.486;9.226;2023-06-14T02:40:18;4.28;;;2.60;;
62153;SDS011;48140;45.486;9.226;2023-06-14T02:42:44;4.32;;;2.55;;
62153;SDS011;48140;45.486;9.226;2023-06-14T02:45:10;4.30;;;2.67;;
62153;SDS011;48140;45.486;9.226;2023-06-14T02:47:35;3.38;;;2.25;;
62153;SDS011;48140;45.486;9.226;2023-06-14T02:50:01;6.45;;;2.75;;
62153;SDS011;48140;45.486;9.226;2023-06-14T02:52:27;4.32;;;2.50;;
62153;SDS011;48140;45.486;9.226;2023-06-14T02:54:53;4.45;;;2.88;;
62153;SDS011;48140;45.486;9.226;2023-06-14T02:57:19;5.28;;;2.40;;
62153;SDS011;48140;45.486;9.226;2023-06-14T02:59:45;4.15;;;2.47;;
62153;SDS011;48140;45.486;9.226;2023-06-14T03:02:11;3.72;;;2.67;;
62153;SDS011;48140;45.486;9.226;2023-06-14T03:04:37;5.68;;;2.55;;
62153;SDS011;48140;45.486;9.226;2023-06-14T03:07:03;5.38;;;2.80;;
62153;SDS011;48140;45.486;9.226;2023-06-14T03:09:37;4.28;;;2.60;;
62153;SDS011;48140;45.486;9.226;2023-06-14T03:12:03;4.03;;;2.30;;
62153;SDS011;48140;45.486;9.226;2023-06-14T03:14:31;3.85;;;2.60;;
62153;SDS011;48140;45.486;9.226;2023-06-14T03:16:57;3.20;;;2.17;;
62153;SDS011;48140;45.486;9.226;2023-06-14T03:19:23;3.13;;;2.03;;
62153;SDS011;48140;45.486;9.226;2023-06-14T03:21:50;5.00;;;2.60;;
62153;SDS011;48140;45.486;9.226;2023-06-14T03:24:16;4.70;;;2.53;;
62153;SDS011;48140;45.486;9.226;2023-06-14T03:26:42;3.58;;;2.33;;
62153;SDS011;48140;45.486;9.226;2023-06-14T03:29:08;4.32;;;2.60;;
62153;SDS011;48140;45.486;9.226;2023-06-14T03:31:34;4.60;;;2.53;;
62153;SDS011;48140;45.486;9.226;2023-06-14T03:34:03;3.67;;;2.50;;
62153;SDS011;48140;45.486;9.226;2023-06-14T03:36:28;3.38;;;2.15;;
62153;SDS011;48140;45.486;9.226;2023-06-14T03:38:54;4.50;;;2.80;;
62153;SDS011;48140;45.486;9.226;2023-06-14T03:41:20;4.80;;;2.65;;
62153;SDS011;48140;45.486;9.226;2023-06-14T03:43:46;4.43;;;2.33;;
62153;SDS011;48140;45.486;9.226;2023-06-14T03:46:11;3.35;;;2.40;;
62153;SDS011;48140;45.486;9.226;2023-06-14T03:48:37;5.10;;;2.38;;
62153;SDS011;48140;45.486;9.226;2023-06-14T03:51:03;5.38;;;2.35;;
62153;SDS011;48140;45.486;9.226;2023-06-14T03:53:29;5.65;;;2.50;;
62153;SDS011;48140;45.486;9.226;2023-06-14T03:55:56;3.38;;;2.40;;
62153;SDS011;48140;45.486;9.226;2023-06-14T03:58:22;3.78;;;2.35;;
62153;SDS011;48140;45.486;9.226;2023-06-14T04:00:48;3.83;;;2.42;;
62153;SDS011;48140;45.486;9.226;2023-06-14T04:03:15;3.05;;;2.22;;
62153;SDS011;48140;45.486;9.226;2023-06-14T04:05:41;5.13;;;2.42;;
62153;SDS011;48140;45.486;9.226;2023-06-14T04:08:08;3.35;;;2.20;;
62153;SDS011;48140;45.486;9.226;2023-06-14T04:10:34;3.75;;;2.30;;
62153;SDS011;48140;45.486;9.226;2023-06-14T04:13:00;4.07;;;2.53;;
62153;SDS011;48140;45.486;9.226;2023-06-14T04:15:25;3.97;;;2.50;;
62153;SDS011;48140;45.486;9.226;2023-06-14T04:17:53;4.15;;;2.60;;
62153;SDS011;48140;45.486;9.226;2023-06-14T04:20:22;3.95;;;2.42;;
62153;SDS011;48140;45.486;9.226;2023-06-14T04:22:50;4.25;;;2.65;;
62153;SDS011;48140;45.486;9.226;2023-06-14T04:25:17;5.78;;;2.60;;
62153;SDS011;48140;45.486;9.226;2023-06-14T04:27:43;3.58;;;2.20;;
62153;SDS011;48140;45.486;9.226;2023-06-14T04:30:09;5.65;;;2.70;;
62153;SDS011;48140;45.486;9.226;2023-06-14T04:32:35;3.70;;;2.45;;
62153;SDS011;48140;45.486;9.226;2023-06-14T04:35:04;4.70;;;2.60;;
62153;SDS011;48140;45.486;9.226;2023-06-14T04:37:31;5.05;;;2.58;;
62153;SDS011;48140;45.486;9.226;2023-06-14T04:39:57;3.15;;;2.35;;
62153;SDS011;48140;45.486;9.226;2023-06-14T04:42:23;5.60;;;2.35;;
62153;SDS011;48140;45.486;9.226;2023-06-14T04:44:56;3.85;;;2.28;;
62153;SDS011;48140;45.486;9.226;2023-06-14T04:47:22;4.13;;;2.50;;
62153;SDS011;48140;45.486;9.226;2023-06-14T04:49:54;4.85;;;2.53;;
62153;SDS011;48140;45.486;9.226;2023-06-14T04:52:20;3.90;;;2.25;;
62153;SDS011;48140;45.486;9.226;2023-06-14T04:54:46;4.22;;;2.42;;
62153;SDS011;48140;45.486;9.226;2023-06-14T04:57:12;3.88;;;2.33;;
62153;SDS011;48140;45.486;9.226;2023-06-14T04:59:39;4.43;;;2.28;;
62153;SDS011;48140;45.486;9.226;2023-06-14T05:02:05;4.70;;;2.20;;
62153;SDS011;48140;45.486;9.226;2023-06-14T05:04:32;3.88;;;2.42;;
62153;SDS011;48140;45.486;9.226;2023-06-14T05:06:58;4.30;;;2.60;;
62153;SDS011;48140;45.486;9.226;2023-06-14T05:09:26;3.58;;;2.60;;
62153;SDS011;48140;45.486;9.226;2023-06-14T05:12:05;3.72;;;2.10;;
62153;SDS011;48140;45.486;9.226;2023-06-14T05:14:34;4.00;;;2.47;;
62153;SDS011;48140;45.486;9.226;2023-06-14T05:17:00;3.97;;;2.30;;
62153;SDS011;48140;45.486;9.226;2023-06-14T05:19:27;3.92;;;2.20;;
62153;SDS011;48140;45.486;9.226;2023-06-14T05:21:53;4.20;;;2.38;;
62153;SDS011;48140;45.486;9.226;2023-06-14T05:24:19;3.83;;;2.42;;
62153;SDS011;48140;45.486;9.226;2023-06-14T05:26:45;4.63;;;2.47;;
62153;SDS011;48140;45.486;9.226;2023-06-14T05:29:11;4.43;;;2.50;;
62153;SDS011;48140;45.486;9.226;2023-06-14T05:31:37;4.45;;;2.58;;
62153;SDS011;48140;45.486;9.226;2023-06-14T05:34:03;4.75;;;2.50;;
62153;SDS011;48140;45.486;9.226;2023-06-14T05:36:29;4.32;;;2.42;;
62153;SDS011;48140;45.486;9.226;2023-06-14T05:38:55;2.72;;;2.10;;
62153;SDS011;48140;45.486;9.226;2023-06-14T05:41:24;3.90;;;2.42;;
62153;SDS011;48140;45.486;9.226;2023-06-14T05:43:50;3.33;;;2.10;;
62153;SDS011;48140;45.486;9.226;2023-06-14T05:46:16;4.00;;;2.38;;
62153;SDS011;48140;45.486;9.226;2023-06-14T05:48:47;3.78;;;2.40;;
62153;SDS011;48140;45.486;9.226;2023-06-14T05:51:13;3.65;;;2.33;;
62153;SDS011;48140;45.486;9.226;2023-06-14T05:53:39;3.90;;;2.55;;
62153;SDS011;48140;45.486;9.226;2023-06-14T05:56:04;4.72;;;2.38;;
62153;SDS011;48140;45.486;9.226;2023-06-14T05:58:30;4.00;;;2.50;;
62153;SDS011;48140;45.486;9.226;2023-06-14T06:00:56;6.57;;;2.60;;
62153;SDS011;48140;45.486;9.226;2023-06-14T06:03:23;6.80;;;2.78;;
62153;SDS011;48140;45.486;9.226;2023-06-14T06:05:49;5.05;;;2.30;;
62153;SDS011;48140;45.486;9.226;2023-06-14T06:08:15;4.70;;;2.70;;
62153;SDS011;48140;45.486;9.226;2023-06-14T06:10:41;3.38;;;2.33;;
62153;SDS011;48140;45.486;9.226;2023-06-14T06:13:07;5.28;;;2.90;;
62153;SDS011;48140;45.486;9.226;2023-06-14T06:15:33;3.88;;;2.40;;
62153;SDS011;48140;45.486;9.226;2023-06-14T06:17:58;3.45;;;2.10;;
62153;SDS011;48140;45.486;9.226;2023-06-14T06:20:25;4.22;;;2.20;;
62153;SDS011;48140;45.486;9.226;2023-06-14T06:22:55;4.82;;;2.75;;
62153;SDS011;48140;45.486;9.226;2023-06-14T06:25:22;4.75;;;2.70;;
62153;SDS011;48140;45.486;9.226;2023-06-14T06:27:50;5.80;;;2.20;;
62153;SDS011;48140;45.486;9.226;2023-06-14T06:30:17;3.88;;;2.15;;
62153;SDS011;48140;45.486;9.226;2023-06-14T06:32:43;4.10;;;2.15;;
62153;SDS011;48140;45.486;9.226;2023-06-14T06:35:09;3.97;;;2.38;;
62153;SDS011;48140;45.486;9.226;2023-06-14T06:37:36;7.30;;;2.10;;
62153;SDS011;48140;45.486;9.226;2023-06-14T06:40:02;3.92;;;2.08;;
62153;SDS011;48140;45.486;9.226;2023-06-14T06:42:30;6.68;;;2.90;;
62153;SDS011;48140;45.486;9.226;2023-06-14T06:44:56;3.50;;;2.40;;
62153;SDS011;48140;45.486;9.226;2023-06-14T06:47:22;3.90;;;2.30;;
62153;SDS011;48140;45.486;9.226;2023-06-14T06:49:48;4.00;;;2.35;;
62153;SDS011;48140;45.486;9.226;2023-06-14T06:52:14;5.35;;;2.63;;
62153;SDS011;48140;45.486;9.226;2023-06-14T06:54:40;3.58;;;2.50;;
62153;SDS011;48140;45.486;9.226;2023-06-14T06:57:05;4.60;;;2.85;;
62153;SDS011;48140;45.486;9.226;2023-06-14T06:59:31;4.10;;;2.80;;
62153;SDS011;48140;45.486;9.226;2023-06-14T07:01:57;5.70;;;3.05;;
62153;SDS011;48140;45.486;9.226;2023-06-14T07:04:23;6.60;;;3.03;;
62153;SDS011;48140;45.486;9.226;2023-06-14T07:06:49;4.75;;;2.85;;
62153;SDS011;48140;45.486;9.226;2023-06-14T07:09:15;4.22;;;3.17;;
62153;SDS011;48140;45.486;9.226;2023-06-14T07:11:42;5.40;;;3.03;;
62153;SDS011;48140;45.486;9.226;2023-06-14T07:14:09;5.55;;;3.08;;
62153;SDS011;48140;45.486;9.226;2023-06-14T07:16:36;6.88;;;3.42;;
62153;SDS011;48140;45.486;9.226;2023-06-14T07:19:02;7.03;;;3.70;;
62153;SDS011;48140;45.486;9.226;2023-06-14T07:21:28;8.65;;;3.63;;
62153;SDS011;48140;45.486;9.226;2023-06-14T07:23:54;7.78;;;3.60;;
62153;SDS011;48140;45.486;9.226;2023-06-14T07:26:21;5.60;;;3.70;;
62153;SDS011;48140;45.486;9.226;2023-06-14T07:28:47;8.43;;;4.25;;
62153;SDS011;48140;45.486;9.226;2023-06-14T07:31:14;8.27;;;3.85;;
62153;SDS011;48140;45.486;9.226;2023-06-14T07:33:41;8.35;;;3.95;;
62153;SDS011;48140;45.486;9.226;2023-06-14T07:36:07;7.30;;;4.20;;
62153;SDS011;48140;45.486;9.226;2023-06-14T07:38:33;4.88;;;3.38;;
62153;SDS011;48140;45.486;9.226;2023-06-14T07:40:59;7.13;;;4.03;;
62153;SDS011;48140;45.486;9.226;2023-06-14T07:43:25;6.57;;;3.90;;
62153;SDS011;48140;45.486;9.226;2023-06-14T07:45:51;5.20;;;3.90;;
62153;SDS011;48140;45.486;9.226;2023-06-14T07:48:18;5.72;;;3.90;;
62153;SDS011;48140;45.486;9.226;2023-06-14T07:50:43;6.15;;;3.88;;
62153;SDS011;48140;45.486;9.226;2023-06-14T07:53:09;4.85;;;3.40;;
62153;SDS011;48140;45.486;9.226;2023-06-14T07:55:35;5.28;;;3.60;;
62153;SDS011;48140;45.486;9.226;2023-06-14T07:58:05;5.60;;;3.58;;
62153;SDS011;48140;45.486;9.226;2023-06-14T08:00:31;7.70;;;3.85;;
62153;SDS011;48140;45.486;9.226;2023-06-14T08:02:57;7.30;;;3.70;;
62153;SDS011;48140;45.486;9.226;2023-06-14T08:05:24;6.35;;;4.05;;
62153;SDS011;48140;45.486;9.226;2023-06-14T08:07:50;8.85;;;3.97;;
62153;SDS011;48140;45.486;9.226;2023-06-14T08:10:16;9.85;;;4.00;;
62153;SDS011;48140;45.486;9.226;2023-06-14T08:12:42;6.78;;;3.58;;
62153;SDS011;48140;45.486;9.226;2023-06-14T08:15:08;5.82;;;3.80;;
62153;SDS011;48140;45.486;9.226;2023-06-14T08:17:34;8.00;;;4.10;;
62153;SDS011;48140;45.486;9.226;2023-06-14T08:20:00;5.22;;;3.50;;
62153;SDS011;48140;45.486;9.226;2023-06-14T08:22:26;6.57;;;3.60;;
62153;SDS011;48140;45.486;9.226;2023-06-14T08:24:53;5.85;;;3.50;;
62153;SDS011;48140;45.486;9.226;2023-06-14T08:27:19;7.18;;;3.97;;
62153;SDS011;48140;45.486;9.226;2023-06-14T08:29:45;6.30;;;4.03;;
62153;SDS011;48140;45.486;9.226;2023-06-14T08:32:11;5.75;;;3.67;;
62153;SDS011;48140;45.486;9.226;2023-06-14T08:34:37;9.25;;;3.83;;
62153;SDS011;48140;45.486;9.226;2023-06-14T08:37:03;7.45;;;4.13;;
62153;SDS011;48140;45.486;9.226;2023-06-14T08:39:29;7.90;;;3.70;;
62153;SDS011;48140;45.486;9.226;2023-06-14T08:41:54;7.53;;;3.90;;
62153;SDS011;48140;45.486;9.226;2023-06-14T08:44:22;8.07;;;4.25;;
62153;SDS011;48140;45.486;9.226;2023-06-14T08:46:48;6.20;;;3.63;;
62153;SDS011;48140;45.486;9.226;2023-06-14T08:49:15;6.22;;;3.80;;
62153;SDS011;48140;45.486;9.226;2023-06-14T08:51:42;8.82;;;4.20;;
62153;SDS011;48140;45.486;9.226;2023-06-14T08:54:08;5.82;;;3.95;;
62153;SDS011;48140;45.486;9.226;2023-06-14T08:56:36;8.90;;;4.50;;
62153;SDS011;48140;45.486;9.226;2023-06-14T08:59:03;7.00;;;4.00;;
62153;SDS011;48140;45.486;9.226;2023-06-14T09:01:34;7.30;;;4.05;;
62153;SDS011;48140;45.486;9.226;2023-06-14T09:04:01;8.55;;;4.13;;
62153;SDS011;48140;45.486;9.226;2023-06-14T09:06:27;5.05;;;3.42;;
62153;SDS011;48140;45.486;9.226;2023-06-14T09:08:54;5.72;;;3.83;;
62153;SDS011;48140;45.486;9.226;2023-06-14T09:11:23;6.80;;;4.43;;
62153;SDS011;48140;45.486;9.226;2023-06-14T09:13:49;8.15;;;4.35;;
62153;SDS011;48140;45.486;9.226;2023-06-14T09:16:15;8.35;;;4.03;;
62153;SDS011;48140;45.486;9.226;2023-06-14T09:18:42;7.72;;;3.95;;
62153;SDS011;48140;45.486;9.226;2023-06-14T09:21:10;6.68;;;4.75;;
62153;SDS011;48140;45.486;9.226;2023-06-14T09:23:36;6.95;;;4.30;;
62153;SDS011;48140;45.486;9.226;2023-06-14T09:26:07;7.80;;;4.30;;
62153;SDS011;48140;45.486;9.226;2023-06-14T09:28:34;9.65;;;3.97;;
62153;SDS011;48140;45.486;9.226;2023-06-14T09:31:01;11.57;;;4.30;;
62153;SDS011;48140;45.486;9.226;2023-06-14T09:33:27;7.63;;;4.50;;
62153;SDS011;48140;45.486;9.226;2023-06-14T09:35:53;14.18;;;5.18;;
62153;SDS011;48140;45.486;9.226;2023-06-14T09:38:20;8.90;;;3.90;;
62153;SDS011;48140;45.486;9.226;2023-06-14T09:40:45;12.15;;;4.25;;
62153;SDS011;48140;45.486;9.226;2023-06-14T09:43:11;9.35;;;5.60;;
62153;SDS011;48140;45.486;9.226;2023-06-14T09:45:38;8.10;;;4.25;;
62153;SDS011;48140;45.486;9.226;2023-06-14T09:48:05;8.00;;;4.15;;
62153;SDS011;48140;45.486;9.226;2023-06-14T09:50:33;9.30;;;4.22;;
62153;SDS011;48140;45.486;9.226;2023-06-14T09:53:06;6.53;;;3.90;;
62153;SDS011;48140;45.486;9.226;2023-06-14T09:55:34;5.53;;;3.50;;
62153;SDS011;48140;45.486;9.226;2023-06-14T09:58:02;5.78;;;4.13;;
62153;SDS011;48140;45.486;9.226;2023-06-14T10:00:31;7.88;;;4.10;;
62153;SDS011;48140;45.486;9.226;2023-06-14T10:03:00;6.00;;;3.85;;
62153;SDS011;48140;45.486;9.226;2023-06-14T10:05:32;6.72;;;4.20;;
62153;SDS011;48140;45.486;9.226;2023-06-14T10:08:03;6.72;;;4.32;;
62153;SDS011;48140;45.486;9.226;2023-06-14T10:10:33;6.53;;;4.30;;
62153;SDS011;48140;45.486;9.226;2023-06-14T10:12:58;6.80;;;4.50;;
62153;SDS011;48140;45.486;9.226;2023-06-14T10:15:31;6.82;;;4.40;;
62153;SDS011;48140;45.486;9.226;2023-06-14T10:18:07;6.57;;;4.57;;
62153;SDS011;48140;45.486;9.226;2023-06-14T10:20:55;9.18;;;4.60;;
62153;SDS011;48140;45.486;9.226;2023-06-14T10:23:35;10.27;;;4.53;;
62153;SDS011;48140;45.486;9.226;2023-06-14T10:26:06;5.82;;;4.30;;
62153;SDS011;48140;45.486;9.226;2023-06-14T10:28:31;7.70;;;4.07;;
62153;SDS011;48140;45.486;9.226;2023-06-14T10:31:04;6.20;;;4.40;;
62153;SDS011;48140;45.486;9.226;2023-06-14T10:33:35;7.03;;;4.20;;
62153;SDS011;48140;45.486;9.226;2023-06-14T10:38:34;8.48;;;4.53;;
62153;SDS011;48140;45.486;9.226;2023-06-14T10:41:02;6.47;;;4.22;;
62153;SDS011;48140;45.486;9.226;2023-06-14T10:43:30;8.40;;;4.35;;
62153;SDS011;48140;45.486;9.226;2023-06-14T10:48:41;8.20;;;4.63;;
62153;SDS011;48140;45.486;9.226;2023-06-14T10:51:19;7.15;;;4.82;;
62153;SDS011;48140;45.486;9.226;2023-06-14T10:53:49;10.05;;;3.88;;
62153;SDS011;48140;45.486;9.226;2023-06-14T10:56:31;11.00;;;4.22;;
62153;SDS011;48140;45.486;9.226;2023-06-14T10:58:58;5.38;;;3.75;;
62153;SDS011;48140;45.486;9.226;2023-06-14T11:02:09;7.18;;;3.55;;
62153;SDS011;48140;45.486;9.226;2023-06-14T11:04:12;5.63;;;4.10;;
62153;SDS011;48140;45.486;9.226;2023-06-14T11:06:44;6.90;;;4.30;;
62153;SDS011;48140;45.486;9.226;2023-06-14T11:11:49;4.50;;;3.50;;
62153;SDS011;48140;45.486;9.226;2023-06-14T11:14:18;6.60;;;3.17;;
62153;SDS011;48140;45.486;9.226;2023-06-14T11:16:50;5.32;;;3.47;;
62153;SDS011;48140;45.486;9.226;2023-06-14T11:19:16;9.30;;;4.55;;
62153;SDS011;48140;45.486;9.226;2023-06-14T11:21:47;5.30;;;3.95;;
62153;SDS011;48140;45.486;9.226;2023-06-14T11:24:13;5.97;;;4.43;;
62153;SDS011;48140;45.486;9.226;2023-06-14T11:26:39;8.10;;;4.68;;
62153;SDS011;48140;45.486;9.226;2023-06-14T11:29:05;7.65;;;4.70;;
62153;SDS011;48140;45.486;9.226;2023-06-14T11:31:31;7.38;;;5.20;;
62153;SDS011;48140;45.486;9.226;2023-06-14T11:33:57;6.20;;;3.97;;
62153;SDS011;48140;45.486;9.226;2023-06-14T11:36:27;7.13;;;4.03;;
62153;SDS011;48140;45.486;9.226;2023-06-14T11:39:03;7.28;;;4.60;;
62153;SDS011;48140;45.486;9.226;2023-06-14T11:41:44;8.10;;;4.28;;
62153;SDS011;48140;45.486;9.226;2023-06-14T11:44:10;8.55;;;3.53;;
62153;SDS011;48140;45.486;9.226;2023-06-14T11:46:39;6.07;;;3.22;;
62153;SDS011;48140;45.486;9.226;2023-06-14T11:49:06;6.13;;;3.50;;
62153;SDS011;48140;45.486;9.226;2023-06-14T11:51:34;6.82;;;3.20;;
62153;SDS011;48140;45.486;9.226;2023-06-14T11:54:01;5.22;;;3.40;;
62153;SDS011;48140;45.486;9.226;2023-06-14T11:56:27;5.82;;;3.40;;
62153;SDS011;48140;45.486;9.226;2023-06-14T11:58:54;5.10;;;3.25;;
62153;SDS011;48140;45.486;9.226;2023-06-14T12:01:22;6.65;;;3.60;;
62153;SDS011;48140;45.486;9.226;2023-06-14T12:03:48;6.40;;;2.97;;
62153;SDS011;48140;45.486;9.226;2023-06-14T12:06:15;4.55;;;2.95;;
62153;SDS011;48140;45.486;9.226;2023-06-14T12:08:50;5.10;;;2.85;;
62153;SDS011;48140;45.486;9.226;2023-06-14T12:11:15;5.65;;;3.10;;
62153;SDS011;48140;45.486;9.226;2023-06-14T12:13:42;4.93;;;3.20;;
62153;SDS011;48140;45.486;9.226;2023-06-14T12:16:08;5.15;;;3.10;;
62153;SDS011;48140;45.486;9.226;2023-06-14T12:18:35;7.22;;;4.10;;
62153;SDS011;48140;45.486;9.226;2023-06-14T12:21:05;5.70;;;3.60;;
62153;SDS011;48140;45.486;9.226;2023-06-14T12:23:53;5.55;;;3.60;;
62153;SDS011;48140;45.486;9.226;2023-06-14T12:26:19;4.18;;;2.95;;
62153;SDS011;48140;45.486;9.226;2023-06-14T12:28:46;4.90;;;3.35;;
62153;SDS011;48140;45.486;9.226;2023-06-14T12:31:13;4.47;;;2.95;;
62153;SDS011;48140;45.486;9.226;2023-06-14T12:33:40;5.70;;;3.35;;
62153;SDS011;48140;45.486;9.226;2023-06-14T12:36:06;6.05;;;3.17;;
62153;SDS011;48140;45.486;9.226;2023-06-14T12:38:33;5.63;;;3.30;;
62153;SDS011;48140;45.486;9.226;2023-06-14T12:41:01;5.03;;;3.25;;
62153;SDS011;48140;45.486;9.226;2023-06-14T12:43:27;5.57;;;3.65;;
62153;SDS011;48140;45.486;9.226;2023-06-14T12:45:52;3.92;;;2.70;;
62153;SDS011;48140;45.486;9.226;2023-06-14T12:48:19;4.15;;;2.78;;
62153;SDS011;48140;45.486;9.226;2023-06-14T12:50:45;6.18;;;2.70;;
62153;SDS011;48140;45.486;9.226;2023-06-14T12:53:10;4.63;;;3.00;;
62153;SDS011;48140;45.486;9.226;2023-06-14T12:55:37;4.05;;;2.63;;
62153;SDS011;48140;45.486;9.226;2023-06-14T12:58:03;6.65;;;2.72;;
62153;SDS011;48140;45.486;9.226;2023-06-14T13:00:29;5.18;;;2.70;;
62153;SDS011;48140;45.486;9.226;2023-06-14T13:02:55;3.85;;;2.58;;
62153;SDS011;48140;45.486;9.226;2023-06-14T13:05:21;4.88;;;3.20;;
62153;SDS011;48140;45.486;9.226;2023-06-14T13:07:47;4.05;;;2.63;;
62153;SDS011;48140;45.486;9.226;2023-06-14T13:10:13;6.35;;;2.80;;
62153;SDS011;48140;45.486;9.226;2023-06-14T13:12:39;5.18;;;2.70;;
62153;SDS011;48140;45.486;9.226;2023-06-14T13:15:05;5.75;;;2.55;;
62153;SDS011;48140;45.486;9.226;2023-06-14T13:17:33;4.97;;;3.00;;
62153;SDS011;48140;45.486;9.226;2023-06-14T13:20:04;4.07;;;2.70;;
62153;SDS011;48140;45.486;9.226;2023-06-14T13:22:32;4.05;;;2.50;;
62153;SDS011;48140;45.486;9.226;2023-06-14T13:24:58;3.72;;;2.58;;
62153;SDS011;48140;45.486;9.226;2023-06-14T13:27:23;4.82;;;2.25;;
62153;SDS011;48140;45.486;9.226;2023-06-14T13:29:49;5.53;;;2.53;;
62153;SDS011;48140;45.486;9.226;2023-06-14T13:32:15;5.70;;;2.33;;
62153;SDS011;48140;45.486;9.226;2023-06-14T13:34:41;3.35;;;2.10;;
62153;SDS011;48140;45.486;9.226;2023-06-14T13:37:06;4.35;;;2.10;;
62153;SDS011;48140;45.486;9.226;2023-06-14T13:39:34;5.18;;;2.70;;
62153;SDS011;48140;45.486;9.226;2023-06-14T13:42:02;5.07;;;2.83;;
62153;SDS011;48140;45.486;9.226;2023-06-14T13:44:28;4.10;;;2.40;;
62153;SDS011;48140;45.486;9.226;2023-06-14T13:46:53;5.68;;;2.85;;
62153;SDS011;48140;45.486;9.226;2023-06-14T13:49:19;4.70;;;3.00;;
62153;SDS011;48140;45.486;9.226;2023-06-14T13:51:45;4.35;;;2.88;;
62153;SDS011;48140;45.486;9.226;2023-06-14T13:54:12;4.70;;;2.80;;
62153;SDS011;48140;45.486;9.226;2023-06-14T13:56:38;10.02;;;3.22;;
62153;SDS011;48140;45.486;9.226;2023-06-14T13:59:11;4.10;;;2.83;;
62153;SDS011;48140;45.486;9.226;2023-06-14T14:01:37;5.65;;;2.60;;
62153;SDS011;48140;45.486;9.226;2023-06-14T14:04:03;6.07;;;2.55;;
62153;SDS011;48140;45.486;9.226;2023-06-14T14:06:29;4.72;;;2.88;;
62153;SDS011;48140;45.486;9.226;2023-06-14T14:08:55;3.92;;;2.80;;
62153;SDS011;48140;45.486;9.226;2023-06-14T14:11:21;4.00;;;2.72;;
62153;SDS011;48140;45.486;9.226;2023-06-14T14:13:47;6.70;;;2.30;;
62153;SDS011;48140;45.486;9.226;2023-06-14T14:16:13;3.33;;;2.30;;
62153;SDS011;48140;45.486;9.226;2023-06-14T14:18:38;8.13;;;2.17;;
62153;SDS011;48140;45.486;9.226;2023-06-14T14:21:04;4.55;;;2.10;;
62153;SDS011;48140;45.486;9.226;2023-06-14T14:23:30;6.93;;;2.40;;
62153;SDS011;48140;45.486;9.226;2023-06-14T14:25:55;2.67;;;2.20;;
62153;SDS011;48140;45.486;9.226;2023-06-14T14:28:22;4.65;;;2.55;;
62153;SDS011;48140;45.486;9.226;2023-06-14T14:30:48;3.70;;;2.10;;
62153;SDS011;48140;45.486;9.226;2023-06-14T14:33:14;5.43;;;2.60;;
62153;SDS011;48140;45.486;9.226;2023-06-14T14:35:43;6.22;;;2.70;;
62153;SDS011;48140;45.486;9.226;2023-06-14T14:38:12;6.00;;;3.20;;
62153;SDS011;48140;45.486;9.226;2023-06-14T14:40:40;4.90;;;2.92;;
62153;SDS011;48140;45.486;9.226;2023-06-14T14:43:06;4.05;;;2.50;;
62153;SDS011;48140;45.486;9.226;2023-06-14T14:45:32;4.68;;;2.45;;
62153;SDS011;48140;45.486;9.226;2023-06-14T14:47:57;3.10;;;2.40;;
62153;SDS011;48140;45.486;9.226;2023-06-14T14:50:24;3.38;;;2.35;;
62153;SDS011;48140;45.486;9.226;2023-06-14T14:52:50;6.55;;;2.53;;